sensor_id;sensor_type;location;lat;lon;timestamp;P1;durP1;ratioP1;P2;durP2;ratioP2
3714;SDS011;1873;49.988;8.674;2022-07-11T00:00:21;5.53;;;5.03;;
3714;SDS011;1873;49.988;8.674;2022-07-11T00:02:51;8.27;;;5.93;;
3714;SDS011;1873;49.988;8.674;2022-07-11T00:05:19;6.60;;;6.10;;
3714;SDS011;1873;49.988;8.674;2022-07-11T00:07:47;5.80;;;5.20;;
3714;SDS011;1873;49.988;8.674;2022-07-11T00:10:18;6.00;;;5.03;;
3714;SDS011;1873;49.988;8.674;2022-07-11T00:12:46;5.27;;;4.77;;
3714;SDS011;1873;49.988;8.674;2022-07-11T00:15:15;5.80;;;5.20;;
3714;SDS011;1873;49.988;8.674;2022-07-11T00:17:43;4.80;;;4.30;;
3714;SDS011;1873;49.988;8.674;2022-07-11T00:20:12;6.57;;;5.27;;
3714;SDS011;1873;49.988;8.674;2022-07-11T00:22:40;5.90;;;5.10;;
3714;SDS011;1873;49.988;8.674;2022-07-11T00:25:08;8.30;;;5.70;;
3714;SDS011;1873;49.988;8.674;2022-07-11T00:27:38;7.50;;;4.20;;
3714;SDS011;1873;49.988;8.674;2022-07-11T00:30:12;5.63;;;5.10;;
3714;SDS011;1873;49.988;8.674;2022-07-11T00:32:42;6.30;;;4.50;;
3714;SDS011;1873;49.988;8.674;2022-07-11T00:35:11;6.13;;;4.83;;
3714;SDS011;1873;49.988;8.674;2022-07-11T00:37:39;6.17;;;4.50;;
3714;SDS011;1873;49.988;8.674;2022-07-11T00:40:07;5.63;;;4.77;;
3714;SDS011;1873;49.988;8.674;2022-07-11T00:42:36;5.43;;;4.30;;
3714;SDS011;1873;49.988;8.674;2022-07-11T00:45:07;5.40;;;4.40;;
3714;SDS011;1873;49.988;8.674;2022-07-11T00:47:36;5.30;;;4.70;;
3714;SDS011;1873;49.988;8.674;2022-07-11T00:50:04;4.90;;;4.40;;
3714;SDS011;1873;49.988;8.674;2022-07-11T00:52:36;6.90;;;4.40;;
3714;SDS011;1873;49.988;8.674;2022-07-11T00:55:05;5.47;;;4.97;;
3714;SDS011;1873;49.988;8.674;2022-07-11T00:57:34;5.80;;;5.30;;
3714;SDS011;1873;49.988;8.674;2022-07-11T01:00:07;6.00;;;5.23;;
3714;SDS011;1873;49.988;8.674;2022-07-11T01:02:40;6.63;;;5.90;;
3714;SDS011;1873;49.988;8.674;2022-07-11T01:05:08;7.10;;;5.83;;
3714;SDS011;1873;49.988;8.674;2022-07-11T01:07:37;6.37;;;5.83;;
3714;SDS011;1873;49.988;8.674;2022-07-11T01:10:06;7.80;;;5.33;;
3714;SDS011;1873;49.988;8.674;2022-07-11T01:12:35;6.37;;;5.77;;
3714;SDS011;1873;49.988;8.674;2022-07-11T01:15:04;8.03;;;5.43;;
3714;SDS011;1873;49.988;8.674;2022-07-11T01:17:35;6.30;;;5.70;;
3714;SDS011;1873;49.988;8.674;2022-07-11T01:20:03;7.60;;;5.60;;
3714;SDS011;1873;49.988;8.674;2022-07-11T01:22:33;6.27;;;5.67;;
3714;SDS011;1873;49.988;8.674;2022-07-11T01:25:06;5.77;;;5.13;;
3714;SDS011;1873;49.988;8.674;2022-07-11T01:27:35;5.80;;;5.20;;
3714;SDS011;1873;49.988;8.674;2022-07-11T01:30:04;6.67;;;5.50;;
3714;SDS011;1873;49.988;8.674;2022-07-11T01:32:33;5.40;;;4.90;;
3714;SDS011;1873;49.988;8.674;2022-07-11T01:35:01;6.13;;;5.63;;
3714;SDS011;1873;49.988;8.674;2022-07-11T01:37:30;9.07;;;6.00;;
3714;SDS011;1873;49.988;8.674;2022-07-11T01:39:58;7.37;;;5.87;;
3714;SDS011;1873;49.988;8.674;2022-07-11T01:42:31;5.43;;;4.93;;
3714;SDS011;1873;49.988;8.674;2022-07-11T01:44:59;9.57;;;5.00;;
3714;SDS011;1873;49.988;8.674;2022-07-11T01:47:28;5.67;;;5.17;;
3714;SDS011;1873;49.988;8.674;2022-07-11T01:49:58;9.90;;;5.93;;
3714;SDS011;1873;49.988;8.674;2022-07-11T01:52:26;6.70;;;5.00;;
3714;SDS011;1873;49.988;8.674;2022-07-11T01:54:54;6.90;;;5.70;;
3714;SDS011;1873;49.988;8.674;2022-07-11T02:00:18;5.77;;;5.27;;
3714;SDS011;1873;49.988;8.674;2022-07-11T02:02:46;6.17;;;5.47;;
3714;SDS011;1873;49.988;8.674;2022-07-11T02:05:17;6.17;;;5.57;;
3714;SDS011;1873;49.988;8.674;2022-07-11T02:07:45;7.83;;;5.40;;
3714;SDS011;1873;49.988;8.674;2022-07-11T02:10:31;7.17;;;5.97;;
3714;SDS011;1873;49.988;8.674;2022-07-11T02:13:01;9.33;;;5.40;;
3714;SDS011;1873;49.988;8.674;2022-07-11T02:15:30;7.80;;;6.00;;
3714;SDS011;1873;49.988;8.674;2022-07-11T02:17:58;6.33;;;5.33;;
3714;SDS011;1873;49.988;8.674;2022-07-11T02:20:26;6.33;;;5.23;;
3714;SDS011;1873;49.988;8.674;2022-07-11T02:22:54;5.77;;;5.13;;
3714;SDS011;1873;49.988;8.674;2022-07-11T02:25:25;7.63;;;5.70;;
3714;SDS011;1873;49.988;8.674;2022-07-11T02:27:53;7.03;;;5.87;;
3714;SDS011;1873;49.988;8.674;2022-07-11T02:30:23;5.97;;;5.47;;
3714;SDS011;1873;49.988;8.674;2022-07-11T02:32:51;9.50;;;5.80;;
3714;SDS011;1873;49.988;8.674;2022-07-11T02:35:20;6.87;;;6.17;;
3714;SDS011;1873;49.988;8.674;2022-07-11T02:37:48;5.63;;;5.13;;
3714;SDS011;1873;49.988;8.674;2022-07-11T02:40:19;5.93;;;5.03;;
3714;SDS011;1873;49.988;8.674;2022-07-11T02:42:47;7.10;;;5.60;;
3714;SDS011;1873;49.988;8.674;2022-07-11T02:45:16;6.90;;;5.77;;
3714;SDS011;1873;49.988;8.674;2022-07-11T02:47:46;6.70;;;5.83;;
3714;SDS011;1873;49.988;8.674;2022-07-11T02:50:14;6.40;;;5.23;;
3714;SDS011;1873;49.988;8.674;2022-07-11T02:52:45;7.23;;;6.00;;
3714;SDS011;1873;49.988;8.674;2022-07-11T02:55:14;6.13;;;5.53;;
3714;SDS011;1873;49.988;8.674;2022-07-11T02:57:42;7.50;;;5.70;;
3714;SDS011;1873;49.988;8.674;2022-07-11T03:00:11;6.60;;;5.27;;
3714;SDS011;1873;49.988;8.674;2022-07-11T03:02:42;5.70;;;5.10;;
3714;SDS011;1873;49.988;8.674;2022-07-11T03:05:12;8.83;;;5.40;;
3714;SDS011;1873;49.988;8.674;2022-07-11T03:07:41;8.93;;;5.27;;
3714;SDS011;1873;49.988;8.674;2022-07-11T03:10:10;6.20;;;5.60;;
3714;SDS011;1873;49.988;8.674;2022-07-11T03:12:38;6.03;;;5.53;;
3714;SDS011;1873;49.988;8.674;2022-07-11T03:15:08;6.40;;;5.80;;
3714;SDS011;1873;49.988;8.674;2022-07-11T03:17:37;6.77;;;5.40;;
3714;SDS011;1873;49.988;8.674;2022-07-11T03:20:06;5.50;;;5.10;;
3714;SDS011;1873;49.988;8.674;2022-07-11T03:22:37;9.90;;;5.70;;
3714;SDS011;1873;49.988;8.674;2022-07-11T03:25:06;8.30;;;6.07;;
3714;SDS011;1873;49.988;8.674;2022-07-11T03:27:35;6.30;;;5.50;;
3714;SDS011;1873;49.988;8.674;2022-07-11T03:30:03;8.13;;;5.90;;
3714;SDS011;1873;49.988;8.674;2022-07-11T03:32:32;5.60;;;5.10;;
3714;SDS011;1873;49.988;8.674;2022-07-11T03:35:01;6.63;;;5.87;;
3714;SDS011;1873;49.988;8.674;2022-07-11T03:37:48;6.23;;;5.73;;
3714;SDS011;1873;49.988;8.674;2022-07-11T03:40:16;7.00;;;6.10;;
3714;SDS011;1873;49.988;8.674;2022-07-11T03:42:45;8.07;;;5.70;;
3714;SDS011;1873;49.988;8.674;2022-07-11T03:45:13;7.57;;;5.70;;
3714;SDS011;1873;49.988;8.674;2022-07-11T03:47:41;6.60;;;6.00;;
3714;SDS011;1873;49.988;8.674;2022-07-11T03:50:10;6.77;;;6.13;;
3714;SDS011;1873;49.988;8.674;2022-07-11T03:52:38;7.10;;;6.50;;
3714;SDS011;1873;49.988;8.674;2022-07-11T03:55:09;8.00;;;6.30;;
3714;SDS011;1873;49.988;8.674;2022-07-11T03:57:37;6.07;;;5.47;;
3714;SDS011;1873;49.988;8.674;2022-07-11T04:00:06;7.03;;;5.63;;
3714;SDS011;1873;49.988;8.674;2022-07-11T04:02:36;6.33;;;5.73;;
3714;SDS011;1873;49.988;8.674;2022-07-11T04:05:05;6.27;;;5.67;;
3714;SDS011;1873;49.988;8.674;2022-07-11T04:07:34;6.83;;;6.17;;
3714;SDS011;1873;49.988;8.674;2022-07-11T04:10:03;12.30;;;6.63;;
3714;SDS011;1873;49.988;8.674;2022-07-11T04:12:33;6.27;;;5.67;;
3714;SDS011;1873;49.988;8.674;2022-07-11T04:15:01;6.27;;;5.67;;
3714;SDS011;1873;49.988;8.674;2022-07-11T04:17:32;9.73;;;6.97;;
3714;SDS011;1873;49.988;8.674;2022-07-11T04:20:01;9.30;;;7.10;;
3714;SDS011;1873;49.988;8.674;2022-07-11T04:22:30;7.20;;;5.87;;
3714;SDS011;1873;49.988;8.674;2022-07-11T04:24:59;9.10;;;6.47;;
3714;SDS011;1873;49.988;8.674;2022-07-11T04:27:27;8.97;;;6.50;;
3714;SDS011;1873;49.988;8.674;2022-07-11T04:30:00;7.83;;;6.60;;
3714;SDS011;1873;49.988;8.674;2022-07-11T04:32:28;7.27;;;6.57;;
3714;SDS011;1873;49.988;8.674;2022-07-11T04:34:57;7.47;;;6.27;;
3714;SDS011;1873;49.988;8.674;2022-07-11T04:37:25;8.07;;;7.10;;
3714;SDS011;1873;49.988;8.674;2022-07-11T04:39:53;8.50;;;5.90;;
3714;SDS011;1873;49.988;8.674;2022-07-11T04:42:22;7.00;;;6.30;;
3714;SDS011;1873;49.988;8.674;2022-07-11T04:44:50;7.73;;;6.00;;
3714;SDS011;1873;49.988;8.674;2022-07-11T04:47:20;7.50;;;6.70;;
3714;SDS011;1873;49.988;8.674;2022-07-11T04:49:48;10.20;;;6.50;;
3714;SDS011;1873;49.988;8.674;2022-07-11T04:52:17;6.90;;;6.30;;
3714;SDS011;1873;49.988;8.674;2022-07-11T04:54:46;8.40;;;6.30;;
3714;SDS011;1873;49.988;8.674;2022-07-11T05:00:05;7.40;;;6.37;;
3714;SDS011;1873;49.988;8.674;2022-07-11T05:02:35;16.03;;;6.77;;
3714;SDS011;1873;49.988;8.674;2022-07-11T05:05:06;11.77;;;10.57;;
3714;SDS011;1873;49.988;8.674;2022-07-11T05:07:35;13.07;;;7.30;;
3714;SDS011;1873;49.988;8.674;2022-07-11T05:10:04;8.50;;;5.57;;
3714;SDS011;1873;49.988;8.674;2022-07-11T05:12:33;7.30;;;6.70;;
3714;SDS011;1873;49.988;8.674;2022-07-11T05:15:01;7.00;;;6.33;;
3714;SDS011;1873;49.988;8.674;2022-07-11T05:17:30;10.90;;;6.47;;
3714;SDS011;1873;49.988;8.674;2022-07-11T05:20:01;7.43;;;6.73;;
3714;SDS011;1873;49.988;8.674;2022-07-11T05:22:29;7.00;;;6.40;;
3714;SDS011;1873;49.988;8.674;2022-07-11T05:24:58;8.20;;;6.40;;
3714;SDS011;1873;49.988;8.674;2022-07-11T05:27:26;8.10;;;6.00;;
3714;SDS011;1873;49.988;8.674;2022-07-11T05:29:54;6.80;;;5.50;;
3714;SDS011;1873;49.988;8.674;2022-07-11T05:32:23;5.80;;;5.30;;
3714;SDS011;1873;49.988;8.674;2022-07-11T05:34:51;7.03;;;5.27;;
3714;SDS011;1873;49.988;8.674;2022-07-11T05:37:21;5.93;;;5.43;;
3714;SDS011;1873;49.988;8.674;2022-07-11T05:39:50;6.40;;;5.80;;
3714;SDS011;1873;49.988;8.674;2022-07-11T05:42:18;5.80;;;5.20;;
3714;SDS011;1873;49.988;8.674;2022-07-11T05:44:46;12.10;;;5.80;;
3714;SDS011;1873;49.988;8.674;2022-07-11T05:47:16;7.00;;;6.23;;
3714;SDS011;1873;49.988;8.674;2022-07-11T05:49:45;6.77;;;5.30;;
3714;SDS011;1873;49.988;8.674;2022-07-11T05:52:13;6.27;;;5.40;;
3714;SDS011;1873;49.988;8.674;2022-07-11T05:54:43;9.30;;;5.77;;
3714;SDS011;1873;49.988;8.674;2022-07-11T05:57:12;9.53;;;4.80;;
3714;SDS011;1873;49.988;8.674;2022-07-11T05:59:40;5.80;;;5.10;;
3714;SDS011;1873;49.988;8.674;2022-07-11T06:02:09;6.80;;;5.20;;
3714;SDS011;1873;49.988;8.674;2022-07-11T06:04:37;5.40;;;4.90;;
3714;SDS011;1873;49.988;8.674;2022-07-11T06:07:06;6.23;;;5.40;;
3714;SDS011;1873;49.988;8.674;2022-07-11T06:09:34;9.80;;;5.93;;
3714;SDS011;1873;49.988;8.674;2022-07-11T06:12:03;8.00;;;6.23;;
3714;SDS011;1873;49.988;8.674;2022-07-11T06:14:32;5.70;;;5.10;;
3714;SDS011;1873;49.988;8.674;2022-07-11T06:17:01;6.00;;;5.50;;
3714;SDS011;1873;49.988;8.674;2022-07-11T06:19:30;6.93;;;6.00;;
3714;SDS011;1873;49.988;8.674;2022-07-11T06:21:58;6.33;;;4.20;;
3714;SDS011;1873;49.988;8.674;2022-07-11T06:24:27;8.40;;;5.40;;
3714;SDS011;1873;49.988;8.674;2022-07-11T06:26:55;6.63;;;5.93;;
3714;SDS011;1873;49.988;8.674;2022-07-11T06:29:28;7.90;;;5.30;;
3714;SDS011;1873;49.988;8.674;2022-07-11T06:31:56;7.87;;;5.97;;
3714;SDS011;1873;49.988;8.674;2022-07-11T06:34:25;8.93;;;4.67;;
3714;SDS011;1873;49.988;8.674;2022-07-11T06:36:53;6.83;;;5.53;;
3714;SDS011;1873;49.988;8.674;2022-07-11T06:39:21;6.70;;;4.70;;
3714;SDS011;1873;49.988;8.674;2022-07-11T06:41:50;8.67;;;4.20;;
3714;SDS011;1873;49.988;8.674;2022-07-11T06:44:18;7.70;;;5.00;;
3714;SDS011;1873;49.988;8.674;2022-07-11T06:46:54;5.87;;;4.60;;
3714;SDS011;1873;49.988;8.674;2022-07-11T06:49:23;6.73;;;5.10;;
3714;SDS011;1873;49.988;8.674;2022-07-11T06:51:51;4.97;;;4.30;;
3714;SDS011;1873;49.988;8.674;2022-07-11T06:54:20;5.10;;;4.50;;
3714;SDS011;1873;49.988;8.674;2022-07-11T06:59:41;9.47;;;4.40;;
3714;SDS011;1873;49.988;8.674;2022-07-11T07:02:11;5.57;;;4.50;;
3714;SDS011;1873;49.988;8.674;2022-07-11T07:04:40;6.57;;;5.40;;
3714;SDS011;1873;49.988;8.674;2022-07-11T07:07:08;6.10;;;5.50;;
3714;SDS011;1873;49.988;8.674;2022-07-11T07:09:36;8.60;;;5.10;;
3714;SDS011;1873;49.988;8.674;2022-07-11T07:12:05;6.93;;;4.57;;
3714;SDS011;1873;49.988;8.674;2022-07-11T07:14:33;7.60;;;5.73;;
3714;SDS011;1873;49.988;8.674;2022-07-11T07:17:02;7.23;;;5.30;;
3714;SDS011;1873;49.988;8.674;2022-07-11T07:19:33;12.13;;;5.33;;
3714;SDS011;1873;49.988;8.674;2022-07-11T07:22:01;10.83;;;5.80;;
3714;SDS011;1873;49.988;8.674;2022-07-11T07:24:32;6.63;;;6.00;;
3714;SDS011;1873;49.988;8.674;2022-07-11T07:27:00;6.60;;;5.40;;
3714;SDS011;1873;49.988;8.674;2022-07-11T07:29:28;5.50;;;5.00;;
3714;SDS011;1873;49.988;8.674;2022-07-11T07:31:57;6.30;;;5.13;;
3714;SDS011;1873;49.988;8.674;2022-07-11T07:34:28;7.37;;;5.30;;
3714;SDS011;1873;49.988;8.674;2022-07-11T07:36:58;5.60;;;4.83;;
3714;SDS011;1873;49.988;8.674;2022-07-11T07:39:26;10.80;;;4.60;;
3714;SDS011;1873;49.988;8.674;2022-07-11T07:41:55;6.00;;;4.87;;
3714;SDS011;1873;49.988;8.674;2022-07-11T07:44:24;4.67;;;4.17;;
3714;SDS011;1873;49.988;8.674;2022-07-11T07:46:53;10.63;;;4.87;;
3714;SDS011;1873;49.988;8.674;2022-07-11T07:49:22;5.50;;;4.83;;
3714;SDS011;1873;49.988;8.674;2022-07-11T07:52:31;4.77;;;4.27;;
3714;SDS011;1873;49.988;8.674;2022-07-11T08:19:32;4.50;;;2.90;;
3714;SDS011;1873;49.988;8.674;2022-07-11T08:29:44;4.73;;;3.27;;
3714;SDS011;1873;49.988;8.674;2022-07-11T08:32:12;5.87;;;3.43;;
3714;SDS011;1873;49.988;8.674;2022-07-11T08:34:43;4.50;;;3.40;;
3714;SDS011;1873;49.988;8.674;2022-07-11T08:37:12;4.00;;;3.60;;
3714;SDS011;1873;49.988;8.674;2022-07-11T08:39:40;3.47;;;3.17;;
3714;SDS011;1873;49.988;8.674;2022-07-11T08:42:13;4.70;;;3.37;;
3714;SDS011;1873;49.988;8.674;2022-07-11T08:44:46;3.80;;;2.90;;
3714;SDS011;1873;49.988;8.674;2022-07-11T08:47:14;6.60;;;2.50;;
3714;SDS011;1873;49.988;8.674;2022-07-11T08:49:45;3.30;;;3.00;;
3714;SDS011;1873;49.988;8.674;2022-07-11T08:52:14;3.70;;;3.20;;
3714;SDS011;1873;49.988;8.674;2022-07-11T08:58:55;7.10;;;2.40;;
3714;SDS011;1873;49.988;8.674;2022-07-11T09:01:27;3.33;;;2.43;;
3714;SDS011;1873;49.988;8.674;2022-07-11T09:03:57;4.60;;;2.90;;
3714;SDS011;1873;49.988;8.674;2022-07-11T09:06:28;3.70;;;3.20;;
3714;SDS011;1873;49.988;8.674;2022-07-11T09:08:57;3.80;;;3.00;;
3714;SDS011;1873;49.988;8.674;2022-07-11T09:11:27;4.43;;;3.03;;
3714;SDS011;1873;49.988;8.674;2022-07-11T09:13:55;3.73;;;2.87;;
3714;SDS011;1873;49.988;8.674;2022-07-11T09:16:24;4.43;;;2.87;;
3714;SDS011;1873;49.988;8.674;2022-07-11T09:18:58;6.90;;;3.27;;
3714;SDS011;1873;49.988;8.674;2022-07-11T09:21:29;4.40;;;3.57;;
3714;SDS011;1873;49.988;8.674;2022-07-11T09:24:26;2.90;;;2.57;;
3714;SDS011;1873;49.988;8.674;2022-07-11T09:27:12;3.80;;;2.83;;
3714;SDS011;1873;49.988;8.674;2022-07-11T09:29:40;3.80;;;3.17;;
3714;SDS011;1873;49.988;8.674;2022-07-11T09:32:09;4.05;;;2.75;;
3714;SDS011;1873;49.988;8.674;2022-07-11T09:35:10;4.67;;;2.90;;
3714;SDS011;1873;49.988;8.674;2022-07-11T09:37:59;3.30;;;2.90;;
3714;SDS011;1873;49.988;8.674;2022-07-11T09:40:36;3.70;;;2.90;;
3714;SDS011;1873;49.988;8.674;2022-07-11T09:43:11;4.47;;;2.53;;
3714;SDS011;1873;49.988;8.674;2022-07-11T09:46:14;3.53;;;2.63;;
3714;SDS011;1873;49.988;8.674;2022-07-11T09:48:51;6.03;;;2.90;;
3714;SDS011;1873;49.988;8.674;2022-07-11T09:51:22;5.10;;;3.00;;
3714;SDS011;1873;49.988;8.674;2022-07-11T09:53:55;4.17;;;2.57;;
3714;SDS011;1873;49.988;8.674;2022-07-11T09:59:22;3.20;;;2.87;;
3714;SDS011;1873;49.988;8.674;2022-07-11T10:01:51;3.43;;;2.57;;
3714;SDS011;1873;49.988;8.674;2022-07-11T10:04:23;3.50;;;2.90;;
3714;SDS011;1873;49.988;8.674;2022-07-11T10:06:52;3.10;;;2.70;;
3714;SDS011;1873;49.988;8.674;2022-07-11T10:09:22;3.20;;;2.90;;
3714;SDS011;1873;49.988;8.674;2022-07-11T10:11:51;3.93;;;3.10;;
3714;SDS011;1873;49.988;8.674;2022-07-11T10:14:22;4.87;;;4.10;;
3714;SDS011;1873;49.988;8.674;2022-07-11T10:16:55;9.63;;;8.63;;
3714;SDS011;1873;49.988;8.674;2022-07-11T10:19:32;7.90;;;7.10;;
3714;SDS011;1873;49.988;8.674;2022-07-11T10:22:26;4.30;;;3.30;;
3714;SDS011;1873;49.988;8.674;2022-07-11T10:25:05;3.93;;;3.53;;
3714;SDS011;1873;49.988;8.674;2022-07-11T10:27:49;6.90;;;6.30;;
3714;SDS011;1873;49.988;8.674;2022-07-11T10:33:16;6.10;;;4.67;;
3714;SDS011;1873;49.988;8.674;2022-07-11T10:35:46;5.00;;;4.37;;
3714;SDS011;1873;49.988;8.674;2022-07-11T10:38:16;5.63;;;3.40;;
3714;SDS011;1873;49.988;8.674;2022-07-11T10:40:47;5.20;;;4.20;;
3714;SDS011;1873;49.988;8.674;2022-07-11T10:43:33;4.90;;;4.40;;
3714;SDS011;1873;49.988;8.674;2022-07-11T10:46:09;4.67;;;4.20;;
3714;SDS011;1873;49.988;8.674;2022-07-11T10:48:56;4.03;;;3.60;;
3714;SDS011;1873;49.988;8.674;2022-07-11T10:51:34;4.20;;;3.53;;
3714;SDS011;1873;49.988;8.674;2022-07-11T10:54:32;4.57;;;2.80;;
3714;SDS011;1873;49.988;8.674;2022-07-11T10:57:21;3.97;;;3.57;;
3714;SDS011;1873;49.988;8.674;2022-07-11T10:59:54;4.00;;;3.27;;
3714;SDS011;1873;49.988;8.674;2022-07-11T11:02:25;4.30;;;3.53;;
3714;SDS011;1873;49.988;8.674;2022-07-11T11:04:54;4.90;;;3.97;;
3714;SDS011;1873;49.988;8.674;2022-07-11T11:07:37;4.17;;;3.20;;
3714;SDS011;1873;49.988;8.674;2022-07-11T11:13:22;7.03;;;4.40;;
3714;SDS011;1873;49.988;8.674;2022-07-11T11:15:51;4.33;;;3.53;;
3714;SDS011;1873;49.988;8.674;2022-07-11T11:18:33;4.10;;;3.33;;
3714;SDS011;1873;49.988;8.674;2022-07-11T11:21:19;6.60;;;4.53;;
3714;SDS011;1873;49.988;8.674;2022-07-11T11:24:04;4.30;;;3.67;;
3714;SDS011;1873;49.988;8.674;2022-07-11T11:26:48;4.20;;;3.80;;
3714;SDS011;1873;49.988;8.674;2022-07-11T11:29:24;3.70;;;3.20;;
3714;SDS011;1873;49.988;8.674;2022-07-11T11:32:38;4.13;;;3.73;;
3714;SDS011;1873;49.988;8.674;2022-07-11T11:38:32;5.30;;;3.50;;
3714;SDS011;1873;49.988;8.674;2022-07-11T11:41:02;6.03;;;3.33;;
3714;SDS011;1873;49.988;8.674;2022-07-11T11:43:35;3.60;;;2.80;;
3714;SDS011;1873;49.988;8.674;2022-07-11T11:46:09;4.23;;;3.63;;
3714;SDS011;1873;49.988;8.674;2022-07-11T11:48:40;3.77;;;3.37;;
3714;SDS011;1873;49.988;8.674;2022-07-11T11:51:12;8.57;;;3.73;;
3714;SDS011;1873;49.988;8.674;2022-07-11T11:53:42;5.83;;;3.70;;
3714;SDS011;1873;49.988;8.674;2022-07-11T11:56:19;4.13;;;3.30;;
3714;SDS011;1873;49.988;8.674;2022-07-11T11:59:52;3.30;;;3.00;;
3714;SDS011;1873;49.988;8.674;2022-07-11T12:02:36;4.50;;;3.17;;
3714;SDS011;1873;49.988;8.674;2022-07-11T12:05:08;4.37;;;3.77;;
3714;SDS011;1873;49.988;8.674;2022-07-11T12:22:41;3.47;;;3.17;;
3714;SDS011;1873;49.988;8.674;2022-07-11T12:25:10;4.23;;;3.30;;
3714;SDS011;1873;49.988;8.674;2022-07-11T12:27:45;4.10;;;2.90;;
3714;SDS011;1873;49.988;8.674;2022-07-11T12:30:23;3.60;;;3.00;;
3714;SDS011;1873;49.988;8.674;2022-07-11T12:33:02;3.20;;;2.90;;
3714;SDS011;1873;49.988;8.674;2022-07-11T12:38:23;6.50;;;3.70;;
3714;SDS011;1873;49.988;8.674;2022-07-11T12:41:01;4.27;;;3.50;;
3714;SDS011;1873;49.988;8.674;2022-07-11T12:43:40;3.53;;;2.73;;
3714;SDS011;1873;49.988;8.674;2022-07-11T12:46:29;3.07;;;2.77;;
3714;SDS011;1873;49.988;8.674;2022-07-11T12:49:00;6.23;;;3.17;;
3714;SDS011;1873;49.988;8.674;2022-07-11T12:51:31;5.17;;;3.03;;
3714;SDS011;1873;49.988;8.674;2022-07-11T12:54:05;5.87;;;3.90;;
3714;SDS011;1873;49.988;8.674;2022-07-11T12:56:34;3.40;;;3.00;;
3714;SDS011;1873;49.988;8.674;2022-07-11T12:59:03;5.20;;;4.80;;
3714;SDS011;1873;49.988;8.674;2022-07-11T13:01:36;3.30;;;3.00;;
3714;SDS011;1873;49.988;8.674;2022-07-11T13:04:30;3.90;;;3.20;;
3714;SDS011;1873;49.988;8.674;2022-07-11T13:10:14;4.13;;;3.20;;
3714;SDS011;1873;49.988;8.674;2022-07-11T13:12:45;6.07;;;3.63;;
3714;SDS011;1873;49.988;8.674;2022-07-11T13:15:14;4.20;;;3.27;;
3714;SDS011;1873;49.988;8.674;2022-07-11T13:17:44;6.30;;;3.30;;
3714;SDS011;1873;49.988;8.674;2022-07-11T13:20:16;4.77;;;3.20;;
3714;SDS011;1873;49.988;8.674;2022-07-11T13:22:48;4.70;;;3.37;;
3714;SDS011;1873;49.988;8.674;2022-07-11T13:25:18;4.07;;;3.43;;
3714;SDS011;1873;49.988;8.674;2022-07-11T13:27:48;3.80;;;2.87;;
3714;SDS011;1873;49.988;8.674;2022-07-11T13:30:19;4.30;;;3.03;;
3714;SDS011;1873;49.988;8.674;2022-07-11T13:33:09;5.33;;;2.90;;
3714;SDS011;1873;49.988;8.674;2022-07-11T13:35:37;4.43;;;3.17;;
3714;SDS011;1873;49.988;8.674;2022-07-11T13:38:07;6.17;;;3.60;;
3714;SDS011;1873;49.988;8.674;2022-07-11T13:40:36;6.63;;;3.20;;
3714;SDS011;1873;49.988;8.674;2022-07-11T13:43:04;6.07;;;2.97;;
3714;SDS011;1873;49.988;8.674;2022-07-11T13:45:32;3.63;;;2.93;;
3714;SDS011;1873;49.988;8.674;2022-07-11T13:48:01;3.20;;;2.60;;
3714;SDS011;1873;49.988;8.674;2022-07-11T13:50:30;3.50;;;3.17;;
3714;SDS011;1873;49.988;8.674;2022-07-11T13:52:59;6.20;;;2.80;;
3714;SDS011;1873;49.988;8.674;2022-07-11T13:55:29;3.27;;;2.90;;
3714;SDS011;1873;49.988;8.674;2022-07-11T13:57:58;4.80;;;3.70;;
3714;SDS011;1873;49.988;8.674;2022-07-11T14:00:27;5.90;;;2.77;;
3714;SDS011;1873;49.988;8.674;2022-07-11T14:02:58;3.90;;;2.70;;
3714;SDS011;1873;49.988;8.674;2022-07-11T14:05:27;3.10;;;2.70;;
3714;SDS011;1873;49.988;8.674;2022-07-11T14:07:56;2.93;;;2.63;;
3714;SDS011;1873;49.988;8.674;2022-07-11T14:10:24;3.43;;;2.70;;
3714;SDS011;1873;49.988;8.674;2022-07-11T14:12:56;3.90;;;2.70;;
3714;SDS011;1873;49.988;8.674;2022-07-11T14:15:25;3.33;;;3.00;;
3714;SDS011;1873;49.988;8.674;2022-07-11T14:17:53;3.17;;;2.87;;
3714;SDS011;1873;49.988;8.674;2022-07-11T14:20:22;2.87;;;2.40;;
3714;SDS011;1873;49.988;8.674;2022-07-11T14:22:52;2.60;;;2.40;;
3714;SDS011;1873;49.988;8.674;2022-07-11T14:25:20;2.83;;;2.40;;
3714;SDS011;1873;49.988;8.674;2022-07-11T14:27:50;5.00;;;2.37;;
3714;SDS011;1873;49.988;8.674;2022-07-11T14:30:21;3.30;;;2.23;;
3714;SDS011;1873;49.988;8.674;2022-07-11T14:32:49;3.53;;;1.97;;
3714;SDS011;1873;49.988;8.674;2022-07-11T14:35:18;2.93;;;2.50;;
3714;SDS011;1873;49.988;8.674;2022-07-11T14:37:46;3.10;;;2.07;;
3714;SDS011;1873;49.988;8.674;2022-07-11T14:40:16;3.53;;;2.37;;
3714;SDS011;1873;49.988;8.674;2022-07-11T14:42:44;2.60;;;2.27;;
3714;SDS011;1873;49.988;8.674;2022-07-11T14:45:13;3.53;;;2.43;;
3714;SDS011;1873;49.988;8.674;2022-07-11T14:47:44;3.40;;;2.30;;
3714;SDS011;1873;49.988;8.674;2022-07-11T14:50:14;3.43;;;2.57;;
3714;SDS011;1873;49.988;8.674;2022-07-11T14:52:42;4.90;;;2.90;;
3714;SDS011;1873;49.988;8.674;2022-07-11T14:55:11;3.90;;;2.73;;
3714;SDS011;1873;49.988;8.674;2022-07-11T14:57:39;3.43;;;3.10;;
3714;SDS011;1873;49.988;8.674;2022-07-11T15:00:13;4.37;;;2.70;;
3714;SDS011;1873;49.988;8.674;2022-07-11T15:02:47;2.80;;;2.50;;
3714;SDS011;1873;49.988;8.674;2022-07-11T15:05:33;3.07;;;2.30;;
3714;SDS011;1873;49.988;8.674;2022-07-11T15:08:01;3.37;;;2.63;;
3714;SDS011;1873;49.988;8.674;2022-07-11T15:10:47;3.30;;;2.87;;
3714;SDS011;1873;49.988;8.674;2022-07-11T15:13:33;3.60;;;2.40;;
3714;SDS011;1873;49.988;8.674;2022-07-11T15:16:03;3.60;;;2.27;;
3714;SDS011;1873;49.988;8.674;2022-07-11T15:18:33;3.80;;;2.43;;
3714;SDS011;1873;49.988;8.674;2022-07-11T15:21:02;2.87;;;2.50;;
3714;SDS011;1873;49.988;8.674;2022-07-11T15:23:32;3.10;;;2.40;;
3714;SDS011;1873;49.988;8.674;2022-07-11T15:26:02;3.30;;;2.93;;
3714;SDS011;1873;49.988;8.674;2022-07-11T15:28:30;4.30;;;3.00;;
3714;SDS011;1873;49.988;8.674;2022-07-11T15:31:00;2.80;;;2.43;;
3714;SDS011;1873;49.988;8.674;2022-07-11T15:33:31;3.80;;;2.23;;
3714;SDS011;1873;49.988;8.674;2022-07-11T15:36:03;3.17;;;2.20;;
3714;SDS011;1873;49.988;8.674;2022-07-11T15:38:32;3.17;;;2.87;;
3714;SDS011;1873;49.988;8.674;2022-07-11T15:41:02;3.37;;;2.50;;
3714;SDS011;1873;49.988;8.674;2022-07-11T15:43:31;3.20;;;2.40;;
3714;SDS011;1873;49.988;8.674;2022-07-11T15:46:00;8.90;;;8.03;;
3714;SDS011;1873;49.988;8.674;2022-07-11T15:48:29;5.90;;;5.30;;
3714;SDS011;1873;49.988;8.674;2022-07-11T15:50:58;9.37;;;6.97;;
3714;SDS011;1873;49.988;8.674;2022-07-11T15:53:28;5.13;;;3.17;;
3714;SDS011;1873;49.988;8.674;2022-07-11T15:55:57;4.77;;;2.83;;
3714;SDS011;1873;49.988;8.674;2022-07-11T15:58:28;4.30;;;2.67;;
3714;SDS011;1873;49.988;8.674;2022-07-11T16:00:58;3.43;;;2.83;;
3714;SDS011;1873;49.988;8.674;2022-07-11T16:03:28;3.57;;;2.63;;
3714;SDS011;1873;49.988;8.674;2022-07-11T16:05:57;3.50;;;2.63;;
3714;SDS011;1873;49.988;8.674;2022-07-11T16:08:25;3.90;;;2.57;;
3714;SDS011;1873;49.988;8.674;2022-07-11T16:10:55;3.47;;;2.53;;
3714;SDS011;1873;49.988;8.674;2022-07-11T16:13:24;3.30;;;2.80;;
3714;SDS011;1873;49.988;8.674;2022-07-11T16:15:52;4.20;;;2.83;;
3714;SDS011;1873;49.988;8.674;2022-07-11T16:18:21;3.20;;;2.80;;
3714;SDS011;1873;49.988;8.674;2022-07-11T16:20:49;4.83;;;2.87;;
3714;SDS011;1873;49.988;8.674;2022-07-11T16:23:18;5.23;;;3.37;;
3714;SDS011;1873;49.988;8.674;2022-07-11T16:25:46;3.23;;;2.93;;
3714;SDS011;1873;49.988;8.674;2022-07-11T16:28:17;3.50;;;3.00;;
3714;SDS011;1873;49.988;8.674;2022-07-11T16:30:47;3.27;;;2.97;;
3714;SDS011;1873;49.988;8.674;2022-07-11T16:33:16;3.93;;;2.50;;
3714;SDS011;1873;49.988;8.674;2022-07-11T16:35:44;4.33;;;2.93;;
3714;SDS011;1873;49.988;8.674;2022-07-11T16:38:12;2.80;;;2.30;;
3714;SDS011;1873;49.988;8.674;2022-07-11T16:40:41;3.20;;;2.90;;
3714;SDS011;1873;49.988;8.674;2022-07-11T16:43:29;3.50;;;2.57;;
3714;SDS011;1873;49.988;8.674;2022-07-11T16:46:01;3.60;;;2.33;;
3714;SDS011;1873;49.988;8.674;2022-07-11T16:48:30;4.97;;;4.43;;
3714;SDS011;1873;49.988;8.674;2022-07-11T16:50:59;3.37;;;2.50;;
3714;SDS011;1873;49.988;8.674;2022-07-11T16:53:28;2.90;;;2.53;;
3714;SDS011;1873;49.988;8.674;2022-07-11T16:55:58;5.03;;;2.80;;
3714;SDS011;1873;49.988;8.674;2022-07-11T17:01:22;4.00;;;2.33;;